createdAt,value
2022-12-12T00:02:10.420Z,4.10
2022-12-12T00:04:37.353Z,4.82
2022-12-12T00:07:04.359Z,7.75
2022-12-12T00:09:31.259Z,5.95
2022-12-12T00:11:58.184Z,6.80
2022-12-12T00:14:25.383Z,4.95
2022-12-12T00:16:52.336Z,5.62
2022-12-12T00:19:19.234Z,6.05
2022-12-12T00:21:46.171Z,4.37
2022-12-12T00:24:13.064Z,6.72
2022-12-12T00:26:40.021Z,5.15
2022-12-12T00:29:07.231Z,4.03
2022-12-12T00:31:34.287Z,4.95
2022-12-12T00:34:01.223Z,3.75
2022-12-12T00:36:30.190Z,6.85
2022-12-12T00:38:58.188Z,5.62
2022-12-12T00:41:25.708Z,5.60
2022-12-12T00:43:52.865Z,6.45
2022-12-12T00:46:23.203Z,3.53
2022-12-12T00:48:53.364Z,5.10
2022-12-12T00:51:22.478Z,6.15
2022-12-12T00:53:50.353Z,5.03
2022-12-12T00:56:20.073Z,6.60
2022-12-12T00:58:47.690Z,7.55
2022-12-12T01:01:20.374Z,7.32
2022-12-12T01:03:47.734Z,8.63
2022-12-12T01:06:15.443Z,7.72
2022-12-12T01:08:42.582Z,8.52
2022-12-12T01:11:11.972Z,5.47
2022-12-12T01:13:39.950Z,4.65
2022-12-12T01:16:08.967Z,4.68
2022-12-12T01:18:36.398Z,4.95
2022-12-12T01:21:04.110Z,4.28
2022-12-12T01:23:31.085Z,4.28
2022-12-12T01:26:07.320Z,4.78
2022-12-12T01:28:35.463Z,3.20
2022-12-12T01:31:02.502Z,4.85
2022-12-12T01:33:29.551Z,3.67
2022-12-12T01:35:56.841Z,8.57
2022-12-12T01:38:27.209Z,5.80
2022-12-12T01:40:55.503Z,5.57
2022-12-12T01:43:24.290Z,4.43
2022-12-12T01:46:02.812Z,6.57
2022-12-12T01:48:40.796Z,5.70
2022-12-12T01:51:14.726Z,5.05
2022-12-12T01:53:42.756Z,3.55
2022-12-12T01:56:12.759Z,3.87
2022-12-12T01:58:47.424Z,5.45
2022-12-12T02:01:14.951Z,4.47
2022-12-12T02:03:42.749Z,3.10
2022-12-12T02:06:16.127Z,3.55
2022-12-12T02:08:44.780Z,5.12
2022-12-12T02:11:11.940Z,4.60
2022-12-12T02:13:39.391Z,7.70
2022-12-12T02:16:28.054Z,4.68
2022-12-12T02:18:58.006Z,3.53
2022-12-12T02:21:36.836Z,2.55
2022-12-12T02:24:25.859Z,6.50
2022-12-12T02:27:14.728Z,2.90
2022-12-12T02:29:47.595Z,2.70
2022-12-12T02:32:38.707Z,3.05
2022-12-12T02:35:32.909Z,2.47
2022-12-12T02:38:24.613Z,5.05
2022-12-12T02:40:56.585Z,2.25
2022-12-12T02:43:47.545Z,2.70
2022-12-12T02:46:37.786Z,5.25
2022-12-12T02:49:11.716Z,3.20
2022-12-12T02:51:39.496Z,5.18
2022-12-12T02:54:12.914Z,4.40
2022-12-12T02:56:45.904Z,3.78
2022-12-12T02:59:41.278Z,3.05
2022-12-12T03:02:23.214Z,3.83
2022-12-12T03:36:34.099Z,3.25
2022-12-12T03:39:13.635Z,3.97
2022-12-12T03:41:50.552Z,3.03
2022-12-12T03:44:28.268Z,3.75
2022-12-12T03:47:07.512Z,5.07
2022-12-12T03:49:44.035Z,4.68
2022-12-12T03:52:43.372Z,4.82
2022-12-12T03:55:20.594Z,3.05
2022-12-12T03:57:59.771Z,2.47
2022-12-12T04:00:29.807Z,4.25
2022-12-12T04:03:19.295Z,2.65
2022-12-12T04:06:27.309Z,2.92
2022-12-12T04:09:22.422Z,3.65
2022-12-12T04:12:32.776Z,3.62
2022-12-12T04:15:31.194Z,2.65
2022-12-12T04:18:25.173Z,1.70
2022-12-12T04:21:21.690Z,1.85
2022-12-12T04:23:55.773Z,1.40
2022-12-12T04:26:41.264Z,1.62
2022-12-12T04:29:23.623Z,1.77
2022-12-12T04:32:12.688Z,4.43
2022-12-12T04:34:54.119Z,3.65
2022-12-12T04:37:41.286Z,1.30
2022-12-12T04:40:14.616Z,3.67
2022-12-12T04:42:50.896Z,2.05
2022-12-12T04:45:22.646Z,1.55
2022-12-12T04:47:52.467Z,2.45
2022-12-12T04:50:21.968Z,2.03
2022-12-12T04:52:50.496Z,1.85
2022-12-12T04:55:28.738Z,2.72
2022-12-12T04:57:56.607Z,1.75
2022-12-12T05:00:26.506Z,2.30
2022-12-12T05:03:14.451Z,2.10
2022-12-12T05:05:58.469Z,1.75
2022-12-12T05:08:32.319Z,2.08
2022-12-12T05:11:04.789Z,2.03
2022-12-12T05:13:35.580Z,1.25
2022-12-12T05:16:17.800Z,1.52
2022-12-12T05:18:45.301Z,2.30
2022-12-12T05:21:12.576Z,2.05
2022-12-12T05:23:39.535Z,3.12
2022-12-12T05:26:13.448Z,3.25
2022-12-12T05:28:40.401Z,1.40
2022-12-12T05:31:07.411Z,2.95
2022-12-12T05:33:34.362Z,2.50
2022-12-12T05:36:01.301Z,1.77
2022-12-12T05:38:28.250Z,3.55
2022-12-12T05:40:55.148Z,4.87
2022-12-12T05:43:22.075Z,3.60
2022-12-12T05:45:49.128Z,1.30
2022-12-12T05:48:20.961Z,1.50
2022-12-12T05:50:51.065Z,2.45
2022-12-12T05:53:18.012Z,1.83
2022-12-12T05:55:45.005Z,1.95
2022-12-12T05:58:12.034Z,2.15
2022-12-12T06:00:38.999Z,2.28
2022-12-12T06:03:06.100Z,3.55
2022-12-12T06:05:33.030Z,3.12
2022-12-12T06:07:59.990Z,3.20
2022-12-12T06:10:27.248Z,2.60
2022-12-12T06:12:54.211Z,1.62
2022-12-12T06:15:21.271Z,2.53
2022-12-12T06:17:48.286Z,1.00
2022-12-12T06:20:15.247Z,1.95
2022-12-12T06:22:42.468Z,2.00
2022-12-12T06:25:10.108Z,2.15
2022-12-12T06:27:37.433Z,1.52
2022-12-12T06:30:05.840Z,3.03
2022-12-12T06:32:33.296Z,3.65
2022-12-12T06:35:00.317Z,4.20
2022-12-12T06:37:27.355Z,2.25
2022-12-12T06:39:54.327Z,2.08
2022-12-12T06:42:21.331Z,1.65
2022-12-12T06:44:48.327Z,1.85
2022-12-12T06:47:15.270Z,1.10
2022-12-12T06:52:31.647Z,1.60
2022-12-12T06:54:58.588Z,0.70
2022-12-12T06:57:25.715Z,0.82
2022-12-12T06:59:52.733Z,3.78
2022-12-12T07:02:23.241Z,1.48
2022-12-12T07:04:55.486Z,3.42
2022-12-12T07:07:22.665Z,1.77
2022-12-12T07:09:49.799Z,1.67
2022-12-12T07:12:17.310Z,1.40
2022-12-12T07:14:44.589Z,3.05
2022-12-12T07:17:11.886Z,1.20
2022-12-12T07:19:39.206Z,1.40
2022-12-12T07:22:10.164Z,1.12
2022-12-12T07:24:38.368Z,1.52
2022-12-12T07:27:05.925Z,1.20
2022-12-12T07:29:33.841Z,2.20
2022-12-12T07:32:01.232Z,4.82
2022-12-12T07:34:31.444Z,4.20
2022-12-12T07:37:02.846Z,1.10
2022-12-12T07:39:31.475Z,3.12
2022-12-12T07:41:58.837Z,2.20
2022-12-12T07:44:26.211Z,2.78
2022-12-12T07:46:53.646Z,1.05
2022-12-12T07:49:20.971Z,1.08
2022-12-12T07:51:49.375Z,0.85
2022-12-12T07:54:17.091Z,1.00
2022-12-12T07:56:44.361Z,1.10
2022-12-12T07:59:12.113Z,1.25
2022-12-12T08:01:39.778Z,0.90
2022-12-12T08:04:07.134Z,2.17
2022-12-12T08:06:34.525Z,2.60
2022-12-12T08:09:02.015Z,1.95
2022-12-12T08:11:29.323Z,1.95
2022-12-12T08:13:56.917Z,2.08
2022-12-12T08:16:27.515Z,4.12
2022-12-12T08:18:58.629Z,1.42
2022-12-12T08:21:26.792Z,1.40
2022-12-12T08:23:58.235Z,1.70
2022-12-12T08:26:29.029Z,4.78
2022-12-12T08:28:57.216Z,2.53
2022-12-12T08:31:25.255Z,2.70
2022-12-12T08:35:45.782Z,2.47
2022-12-12T08:43:45.710Z,2.17
2022-12-12T08:46:17.467Z,3.30
2022-12-12T08:48:45.446Z,3.33
2022-12-12T08:51:12.801Z,2.25
2022-12-12T08:53:40.186Z,3.30
2022-12-12T08:56:07.803Z,1.50
2022-12-12T08:58:35.063Z,2.58
2022-12-12T09:01:02.337Z,1.98
2022-12-12T09:03:29.905Z,3.08
2022-12-12T09:05:56.993Z,5.82
2022-12-12T09:08:24.677Z,1.35
2022-12-12T09:10:51.944Z,1.75
2022-12-12T09:13:20.062Z,1.95
2022-12-12T09:15:51.324Z,2.72
2022-12-12T09:18:19.375Z,1.90
2022-12-12T09:20:54.856Z,1.95
2022-12-12T09:23:22.973Z,1.65
2022-12-12T09:25:50.027Z,2.05
2022-12-12T09:28:18.266Z,1.70
2022-12-12T09:30:45.707Z,2.65
2022-12-12T09:33:13.772Z,2.97
2022-12-12T09:35:41.137Z,3.75
2022-12-12T09:38:13.958Z,2.45
2022-12-12T09:41:05.497Z,2.60
2022-12-12T09:43:36.841Z,4.32
2022-12-12T09:46:13.428Z,3.05
2022-12-12T09:48:46.510Z,2.72
2022-12-12T09:51:14.169Z,3.88
2022-12-12T09:53:44.195Z,2.90
2022-12-12T09:56:15.827Z,3.97
2022-12-12T09:59:01.426Z,3.60
2022-12-12T10:47:36.303Z,3.08
2022-12-12T10:50:21.906Z,1.88
2022-12-12T10:52:49.130Z,1.67
2022-12-12T10:55:23.364Z,2.45
2022-12-12T10:58:02.288Z,1.30
2022-12-12T11:00:38.972Z,2.13
2022-12-12T11:03:21.778Z,2.63
2022-12-12T11:05:49.664Z,1.08
2022-12-12T11:08:25.693Z,1.08
2022-12-12T11:11:10.234Z,1.27
2022-12-12T11:13:46.547Z,1.15
2022-12-12T11:16:18.006Z,1.52
2022-12-12T11:19:27.366Z,1.20
2022-12-12T11:21:55.422Z,2.55
2022-12-12T11:24:29.870Z,2.88
2022-12-12T11:26:58.264Z,2.17
2022-12-12T11:29:27.719Z,2.35
2022-12-12T11:31:55.980Z,1.88
2022-12-12T11:34:26.437Z,2.28
2022-12-12T11:36:54.105Z,7.22
2022-12-12T11:39:30.706Z,7.13
2022-12-12T11:42:03.855Z,5.55
2022-12-12T11:44:37.155Z,5.18
2022-12-12T11:47:19.084Z,3.08
2022-12-12T11:49:57.667Z,3.15
2022-12-12T11:52:32.940Z,2.42
2022-12-12T11:55:00.913Z,4.57
2022-12-12T11:58:03.440Z,2.53
2022-12-12T12:00:46.038Z,3.55
2022-12-12T12:03:18.660Z,2.50
2022-12-12T12:05:57.858Z,2.72
2022-12-12T12:08:30.858Z,3.17
2022-12-12T12:11:35.555Z,3.17
2022-12-12T12:14:20.777Z,2.08
2022-12-12T12:17:06.714Z,2.90
2022-12-12T12:19:59.255Z,2.20
2022-12-12T12:23:09.777Z,2.08
2022-12-12T12:25:42.367Z,3.20
2022-12-12T12:29:13.793Z,2.28
2022-12-12T12:32:01.751Z,2.50
2022-12-12T12:35:11.153Z,3.53
2022-12-12T12:37:56.750Z,2.03
2022-12-12T12:40:36.573Z,2.20
2022-12-12T12:43:30.773Z,3.28
2022-12-12T12:46:13.867Z,3.13
2022-12-12T12:48:52.814Z,2.65
2022-12-12T12:51:50.263Z,2.42
2022-12-12T12:54:31.230Z,3.30
2022-12-12T12:57:36.395Z,1.45
2022-12-12T13:00:16.084Z,1.85
2022-12-12T13:03:04.758Z,1.80
2022-12-12T13:05:49.771Z,1.83
2022-12-12T13:08:40.063Z,1.90
2022-12-12T13:11:26.943Z,1.73
2022-12-12T13:13:59.292Z,2.25
2022-12-12T13:16:32.780Z,1.52
2022-12-12T13:19:13.510Z,1.55
2022-12-12T13:22:04.629Z,1.85
2022-12-12T13:25:02.425Z,1.92
2022-12-12T13:27:41.191Z,1.58
2022-12-12T13:30:37.309Z,2.50
2022-12-12T13:33:49.415Z,3.80
2022-12-12T13:36:30.039Z,2.47
2022-12-12T13:39:00.798Z,2.20
2022-12-12T13:41:28.082Z,1.95
2022-12-12T13:43:59.936Z,3.10
2022-12-12T13:46:27.425Z,2.53
2022-12-12T13:48:57.841Z,3.47
2022-12-12T13:51:27.740Z,4.63
2022-12-12T13:54:11.987Z,3.35
2022-12-12T13:56:39.931Z,2.67
2022-12-12T13:59:30.587Z,3.60
2022-12-12T14:02:24.779Z,2.88
2022-12-12T14:05:21.891Z,2.05
2022-12-12T14:07:52.309Z,2.55
2022-12-12T14:10:28.605Z,3.17
2022-12-12T14:12:56.318Z,2.58
2022-12-12T14:15:32.854Z,2.28
2022-12-12T14:18:02.815Z,2.25
2022-12-12T14:20:36.253Z,3.03
2022-12-12T14:23:06.053Z,3.10
2022-12-12T14:25:35.011Z,3.55
2022-12-12T14:28:22.330Z,2.65
2022-12-12T14:31:01.432Z,2.25
2022-12-12T14:33:40.160Z,3.97
2022-12-12T14:36:31.675Z,1.52
2022-12-12T14:39:15.304Z,3.30
2022-12-12T14:41:46.120Z,2.13
2022-12-12T14:44:38.221Z,3.58
2022-12-12T14:47:09.898Z,3.45
2022-12-12T14:49:37.036Z,2.13
2022-12-12T14:52:04.608Z,4.50
2022-12-12T14:54:31.767Z,4.28
2022-12-12T14:56:59.815Z,3.35
2022-12-12T14:59:37.009Z,3.08
2022-12-12T15:02:39.228Z,3.22
2022-12-12T15:05:08.504Z,3.95
2022-12-12T15:07:40.681Z,2.10
2022-12-12T15:10:26.081Z,2.72
2022-12-12T15:12:53.062Z,2.50
2022-12-12T15:15:31.684Z,3.08
2022-12-12T15:18:00.943Z,5.45
2022-12-12T15:20:32.481Z,4.10
2022-12-12T15:23:05.381Z,3.90
2022-12-12T15:25:36.422Z,5.70
2022-12-12T15:28:03.724Z,5.22
2022-12-12T15:30:37.200Z,2.30
2022-12-12T15:33:07.122Z,3.60
2022-12-12T15:35:34.488Z,4.40
2022-12-12T15:38:05.741Z,6.43
2022-12-12T15:40:34.411Z,3.45
2022-12-12T15:43:04.465Z,2.40
2022-12-12T15:45:36.136Z,3.85
2022-12-12T15:48:05.170Z,3.00
2022-12-12T15:50:57.258Z,4.50
2022-12-12T15:53:27.234Z,4.32
2022-12-12T15:56:05.103Z,7.43
2022-12-12T15:58:43.567Z,5.00
2022-12-12T16:01:20.683Z,5.43
2022-12-12T16:04:00.688Z,5.05
2022-12-12T16:06:36.597Z,5.10
2022-12-12T16:09:19.994Z,4.03
2022-12-12T16:11:49.725Z,6.15
2022-12-12T16:14:41.581Z,5.53
2022-12-12T16:17:23.604Z,5.97
2022-12-12T16:20:11.350Z,4.65
2022-12-12T16:23:07.679Z,5.10
2022-12-12T16:25:34.864Z,3.75
2022-12-12T16:28:07.811Z,4.68
2022-12-12T16:30:37.077Z,3.47
2022-12-12T16:33:28.398Z,7.47
2022-12-12T16:35:56.240Z,12.02
2022-12-12T16:38:23.758Z,9.90
2022-12-12T16:40:53.205Z,8.15
2022-12-12T16:43:22.152Z,8.98
2022-12-12T16:45:51.028Z,5.20
2022-12-12T16:48:25.015Z,6.57
2022-12-12T16:50:56.113Z,4.90
2022-12-12T16:53:23.236Z,4.65
2022-12-12T16:55:52.326Z,8.52
2022-12-12T16:58:21.329Z,5.50
2022-12-12T17:00:49.166Z,5.18
2022-12-12T17:03:17.155Z,6.07
2022-12-12T17:05:45.539Z,5.82
2022-12-12T17:08:13.042Z,4.07
2022-12-12T17:10:40.130Z,2.20
2022-12-12T17:13:12.990Z,4.00
2022-12-12T17:15:39.891Z,2.38
2022-12-12T17:18:06.796Z,2.17
2022-12-12T17:20:37.918Z,1.45
2022-12-12T17:25:51.056Z,6.15
2022-12-12T17:28:19.716Z,4.20
2022-12-12T17:30:49.992Z,4.68
2022-12-12T17:33:18.563Z,3.97
2022-12-12T17:35:46.704Z,7.13
2022-12-12T17:38:16.410Z,6.25
2022-12-12T17:40:44.145Z,4.50
2022-12-12T17:43:11.088Z,5.57
2022-12-12T17:45:38.077Z,3.65
2022-12-12T17:48:06.032Z,2.45
2022-12-12T17:50:37.138Z,1.92
2022-12-12T17:53:08.156Z,2.95
2022-12-12T17:55:55.010Z,3.97
2022-12-12T17:58:27.966Z,3.05
2022-12-12T18:00:56.619Z,5.00
2022-12-12T18:03:23.572Z,4.38
2022-12-12T18:05:50.663Z,5.60
2022-12-12T18:08:18.442Z,5.28
2022-12-12T18:10:45.409Z,4.13
2022-12-12T18:13:12.294Z,4.65
2022-12-12T18:15:41.396Z,3.38
2022-12-12T18:18:08.350Z,3.55
2022-12-12T18:20:35.622Z,3.58
2022-12-12T18:23:03.117Z,3.88
2022-12-12T18:25:30.044Z,2.90
2022-12-12T18:27:57.348Z,4.22
2022-12-12T18:30:24.286Z,3.95
2022-12-12T18:32:51.881Z,3.08
2022-12-12T18:35:22.728Z,4.88
2022-12-12T18:37:53.022Z,3.30
2022-12-12T18:40:20.101Z,5.40
2022-12-12T18:42:47.168Z,3.78
2022-12-12T18:45:14.275Z,7.40
2022-12-12T18:47:41.427Z,8.48
2022-12-12T18:50:08.969Z,3.20
2022-12-12T18:52:36.025Z,3.78
2022-12-12T18:55:03.295Z,3.47
2022-12-12T18:57:30.495Z,4.88
2022-12-12T18:59:57.512Z,4.10
2022-12-12T19:02:24.516Z,4.65
2022-12-12T19:04:51.614Z,3.97
2022-12-12T19:07:18.577Z,4.45
2022-12-12T19:09:46.606Z,3.33
2022-12-12T19:12:13.563Z,3.40
2022-12-12T19:15:08.060Z,4.13
2022-12-12T19:17:27.871Z,4.07
2022-12-12T19:19:54.923Z,3.72
2022-12-12T19:25:09.817Z,3.38
2022-12-12T19:27:36.710Z,2.78
2022-12-12T19:30:04.905Z,4.03
2022-12-12T19:32:31.844Z,3.72
2022-12-12T19:34:59.780Z,2.72
2022-12-12T19:37:26.703Z,2.97
2022-12-12T19:39:53.859Z,3.92
2022-12-12T19:42:21.231Z,4.85
2022-12-12T19:44:48.169Z,4.03
2022-12-12T19:47:16.867Z,1.90
2022-12-12T19:49:43.868Z,2.72
2022-12-12T19:52:14.364Z,2.35
2022-12-12T19:54:41.640Z,2.60
2022-12-12T19:57:08.579Z,1.70
2022-12-12T19:59:35.485Z,3.25
2022-12-12T20:02:02.750Z,2.58
2022-12-12T20:04:30.299Z,2.70
2022-12-12T20:06:57.547Z,1.90
2022-12-12T20:09:27.907Z,1.60
2022-12-12T20:11:57.044Z,2.60
2022-12-12T20:14:26.010Z,3.95
2022-12-12T20:16:54.281Z,4.38
2022-12-12T20:19:23.239Z,4.28
2022-12-12T20:22:00.742Z,5.60
2022-12-12T20:24:29.141Z,2.92
2022-12-12T20:26:56.313Z,5.03
2022-12-12T20:29:23.794Z,5.57
2022-12-12T20:31:51.456Z,3.53
2022-12-12T20:34:22.026Z,5.45
2022-12-12T20:36:50.396Z,4.07
2022-12-12T20:39:22.371Z,5.18
2022-12-12T20:41:50.645Z,3.50
2022-12-12T20:44:18.035Z,5.07
2022-12-12T20:46:46.975Z,3.53
2022-12-12T20:49:17.478Z,3.42
2022-12-12T20:52:00.958Z,3.88
2022-12-12T20:54:29.635Z,3.55
2022-12-12T20:56:58.099Z,3.78
2022-12-12T20:59:25.634Z,5.03
2022-12-12T21:01:53.057Z,2.97
2022-12-12T21:04:20.772Z,3.35
2022-12-12T21:06:49.533Z,2.53
2022-12-12T21:09:23.750Z,4.57
2022-12-12T21:11:53.547Z,6.18
2022-12-12T21:14:20.518Z,4.78
2022-12-12T21:16:47.955Z,4.05
2022-12-12T21:19:16.070Z,3.95
2022-12-12T21:21:43.890Z,3.42
2022-12-12T21:24:15.330Z,3.90
2022-12-12T21:26:42.644Z,5.60
2022-12-12T21:29:09.826Z,4.60
2022-12-12T21:31:48.103Z,4.38
2022-12-12T21:34:18.239Z,3.70
2022-12-12T21:36:45.346Z,3.78
2022-12-12T21:39:12.901Z,5.45
2022-12-12T21:41:42.010Z,3.15
2022-12-12T21:44:09.767Z,4.20
2022-12-12T21:46:37.317Z,2.90
2022-12-12T21:49:22.994Z,2.90
2022-12-12T21:51:50.251Z,2.85
2022-12-12T21:54:17.166Z,2.85
2022-12-12T21:56:44.555Z,4.22
2022-12-12T21:59:13.506Z,3.22
2022-12-12T22:01:41.261Z,9.20
2022-12-12T22:04:09.637Z,6.90
2022-12-12T22:06:36.764Z,8.38
2022-12-12T22:09:06.786Z,3.67
2022-12-12T22:11:40.731Z,3.10
2022-12-12T22:14:18.296Z,3.00
2022-12-12T22:16:45.513Z,3.13
2022-12-12T22:19:14.399Z,2.53
2022-12-12T22:21:43.688Z,3.35
2022-12-12T22:24:10.748Z,3.35
2022-12-12T22:26:40.186Z,2.70
2022-12-12T22:29:11.698Z,3.42
2022-12-12T22:31:39.704Z,3.13
2022-12-12T22:34:10.763Z,4.10
2022-12-12T22:36:39.430Z,2.83
2022-12-12T22:39:08.756Z,3.00
2022-12-12T22:41:35.676Z,5.53
2022-12-12T22:44:04.751Z,2.60
2022-12-12T22:46:32.831Z,2.75
2022-12-12T22:49:01.674Z,2.88
2022-12-12T22:51:31.368Z,5.13
2022-12-12T22:54:02.006Z,2.38
2022-12-12T22:56:29.975Z,4.20
2022-12-12T22:58:56.956Z,2.05
2022-12-12T23:01:24.736Z,2.72
2022-12-12T23:03:52.851Z,1.77
2022-12-12T23:06:23.172Z,3.28
2022-12-12T23:08:55.110Z,2.20
2022-12-12T23:11:23.716Z,1.40
2022-12-12T23:13:53.474Z,2.92
2022-12-12T23:16:22.166Z,2.35
2022-12-12T23:18:49.437Z,3.55
2022-12-12T23:21:19.746Z,2.03
2022-12-12T23:23:46.977Z,1.95
2022-12-12T23:26:17.289Z,1.60
2022-12-12T23:28:44.789Z,4.15
2022-12-12T23:31:14.856Z,2.13
2022-12-12T23:33:42.081Z,3.42
2022-12-12T23:36:13.207Z,2.03
2022-12-12T23:38:40.212Z,1.98
2022-12-12T23:41:10.675Z,1.92
2022-12-12T23:43:38.125Z,2.92
2022-12-12T23:46:28.301Z,2.45
2022-12-12T23:49:07.288Z,2.63
2022-12-12T23:51:37.002Z,2.10
2022-12-12T23:54:06.541Z,3.08
2022-12-12T23:56:34.147Z,2.22
2022-12-12T23:59:02.058Z,3.63
